Time;durP1;ratioP1;P1;durP2;ratioP2;P2;SDS_P1;SDS_P2;PMS_P1;PMS_P2;Temp;Humidity;BMP_temperature;BMP_pressure;BME280_temperature;BME280_humidity;BME280_pressure;Samples;Min_cycle;Max_cycle;Signal;HPM_P1;HPM_P2
2022/04/06 00:02:13;;;;;;;;;0.00;0.00;;;;;10.59;59.50;100294.75;5040399;28;45408;-79
2022/04/06 00:04:38;;;;;;;;;1.00;0.00;;;;;10.55;59.10;100281.66;5056985;28;45549;-78
2022/04/06 00:07:04;;;;;;;;;0.00;0.00;;;;;10.56;58.96;100291.34;5058997;28;45209;-79
2022/04/06 00:09:30;;;;;;;;;0.00;0.00;;;;;10.54;58.88;100290.50;5058482;28;46045;-79
2022/04/06 00:11:55;;;;;;;;;1.75;0.00;;;;;10.49;58.68;100288.84;5057774;28;45345;-79
2022/04/06 00:14:21;;;;;;;;;0.00;0.00;;;;;10.40;58.68;100275.84;5057406;28;45249;-79
2022/04/06 00:16:46;;;;;;;;;5.50;0.00;;;;;10.39;58.75;100284.66;5061165;28;45541;-79
2022/04/06 00:19:12;;;;;;;;;1.00;0.00;;;;;10.32;59.21;100280.41;5056183;28;45485;-79
2022/04/06 00:21:38;;;;;;;;;0.00;0.00;;;;;10.36;58.68;100282.09;5060506;28;45389;-80
2022/04/06 00:24:04;;;;;;;;;0.00;0.00;;;;;10.34;58.77;100277.75;5063030;28;45466;-79
2022/04/06 00:26:29;;;;;;;;;1.00;0.00;;;;;10.32;58.80;100269.84;5063113;28;45619;-80
2022/04/06 00:28:55;;;;;;;;;1.00;0.00;;;;;10.34;59.07;100268.06;5057368;28;46678;-80
2022/04/06 00:31:20;;;;;;;;;1.00;1.00;;;;;10.33;59.28;100268.97;5058313;28;45386;-78
2022/04/06 00:33:45;;;;;;;;;0.00;0.00;;;;;10.34;59.14;100269.81;5059771;28;45359;-78
2022/04/06 00:36:11;;;;;;;;;0.25;0.25;;;;;10.33;58.91;100266.31;5063125;27;45426;-80
2022/04/06 00:38:36;;;;;;;;;0.00;0.00;;;;;10.31;58.97;100254.91;5058114;28;45336;-80
2022/04/06 00:41:02;;;;;;;;;0.00;0.00;;;;;10.30;59.13;100261.09;5058434;28;45494;-80
2022/04/06 00:43:27;;;;;;;;;0.00;0.00;;;;;10.29;58.88;100254.06;5061679;28;45418;-79
2022/04/06 00:45:52;;;;;;;;;0.50;0.00;;;;;10.32;59.11;100248.69;5060864;28;45336;-79
2022/04/06 00:48:18;;;;;;;;;3.75;0.00;;;;;10.30;59.24;100240.81;5057095;28;46625;-79
2022/04/06 00:50:44;;;;;;;;;0.50;0.00;;;;;10.28;59.35;100247.06;5056821;28;45400;-79
2022/04/06 00:53:13;;;;;;;;;0.75;0.00;;;;;10.26;59.92;100246.22;5058984;28;45449;-79
2022/04/06 00:55:40;;;;;;;;;2.25;0.75;;;;;10.21;60.06;100246.31;5042901;28;45474;-79
2022/04/06 00:58:06;;;;;;;;;0.50;0.00;;;;;10.13;60.23;100235.06;5045917;28;45433;-79
2022/04/06 01:00:32;;;;;;;;;0.00;0.00;;;;;10.11;60.35;100240.41;5055756;28;45470;-80
2022/04/06 01:02:59;;;;;;;;;0.00;0.00;;;;;10.05;61.24;100235.25;5055466;28;45462;-80
2022/04/06 01:05:25;;;;;;;;;1.00;1.00;;;;;10.01;61.21;100233.59;5056138;28;45375;-79
2022/04/06 01:07:52;;;;;;;;;2.25;0.75;;;;;9.92;61.88;100226.72;5053927;28;46153;-76
2022/04/06 01:10:19;;;;;;;;;0.00;0.00;;;;;9.89;61.69;100228.59;5056237;27;45499;-75
2022/04/06 01:12:48;;;;;;;;;0.50;0.00;;;;;9.82;62.27;100221.69;5054907;28;45529;-75
2022/04/06 01:15:15;;;;;;;;;2.25;1.00;;;;;9.78;62.58;100229.69;5055220;28;45356;-75
2022/04/06 01:17:40;;;;;;;;;3.00;1.00;;;;;9.73;62.56;100217.50;5061311;27;46640;-75
2022/04/06 01:20:08;;;;;;;;;0.00;0.00;;;;;9.70;62.91;100220.19;5067473;28;45502;-75
2022/04/06 01:22:34;;;;;;;;;0.00;0.00;;;;;9.66;63.02;100222.03;5055960;28;45332;-75
2022/04/06 01:25:00;;;;;;;;;3.00;1.00;;;;;9.59;63.34;100207.25;5057369;28;45407;-74
2022/04/06 01:27:26;;;;;;;;;0.00;0.00;;;;;9.57;63.33;100209.06;5062423;28;45454;-74
2022/04/06 01:29:54;;;;;;;;;0.25;0.00;;;;;9.49;63.83;100209.22;5076473;28;45375;-76
2022/04/06 01:32:22;;;;;;;;;1.00;1.00;;;;;9.41;63.82;100206.75;5075156;28;45444;-75
2022/04/06 01:34:49;;;;;;;;;2.50;0.00;;;;;9.40;63.44;100212.06;5066959;28;45449;-76
2022/04/06 01:37:16;;;;;;;;;0.75;0.00;;;;;9.33;64.68;100206.03;5053313;28;46637;-75
2022/04/06 01:39:43;;;;;;;;;1.00;1.00;;;;;9.32;64.30;100216.59;5054624;28;45397;-74
2022/04/06 01:42:11;;;;;;;;;0.50;0.00;;;;;9.29;64.21;100208.75;5057091;28;45505;-75
2022/04/06 01:44:38;;;;;;;;;3.50;1.00;;;;;9.23;64.10;100210.63;5074344;27;45374;-74
2022/04/06 01:47:06;;;;;;;;;0.00;0.00;;;;;9.20;64.60;100207.16;5074926;28;45504;-74
2022/04/06 01:52:16;;;;;;;;;0.00;0.00;;;;;9.12;65.09;100206.47;5054457;28;45532;-76
2022/04/06 01:54:56;;;;;;;;;0.00;0.00;;;;;9.04;64.56;100207.47;5054813;28;45468;-74
2022/04/06 01:57:23;;;;;;;;;0.50;0.00;;;;;9.03;65.13;100203.13;5055667;28;46230;-75
2022/04/06 01:59:49;;;;;;;;;0.00;0.00;;;;;9.02;64.75;100203.16;5057652;28;45335;-74
2022/04/06 02:02:17;;;;;;;;;0.00;0.00;;;;;8.97;65.55;100200.56;5054489;28;45391;-75
2022/04/06 02:04:44;;;;;;;;;0.00;0.00;;;;;8.93;64.85;100198.91;5054281;28;45446;-75
2022/04/06 02:07:11;;;;;;;;;0.00;0.00;;;;;8.92;65.34;100197.16;5052490;28;45983;-75
2022/04/06 02:09:38;;;;;;;;;0.00;0.00;;;;;8.85;65.17;100198.19;5054270;28;45426;-75
2022/04/06 02:12:05;;;;;;;;;1.00;1.00;;;;;8.85;65.67;100200.81;5054533;28;45458;-74
2022/04/06 02:14:31;;;;;;;;;1.00;0.00;;;;;8.83;64.96;100195.56;5069728;27;45397;-74
2022/04/06 02:16:56;;;;;;;;;2.50;0.00;;;;;8.79;65.83;100191.28;5073255;28;46446;-76
2022/04/06 02:19:21;;;;;;;;;1.00;1.00;;;;;8.74;65.95;100192.25;5064867;27;45420;-73
2022/04/06 02:21:47;;;;;;;;;0.00;0.00;;;;;8.73;66.24;100198.41;5053534;28;45496;-75
2022/04/06 02:24:13;;;;;;;;;0.00;0.00;;;;;8.68;65.90;100183.56;5054688;28;45393;-74
2022/04/06 02:26:39;;;;;;;;;1.50;0.00;;;;;8.67;65.70;100192.38;5056632;28;46045;-74
2022/04/06 02:29:05;;;;;;;;;0.00;0.00;;;;;8.64;66.15;100189.78;5056589;28;45332;-75
2022/04/06 02:31:30;;;;;;;;;0.00;0.00;;;;;8.65;65.80;100182.75;5055171;28;45504;-75
2022/04/06 02:33:56;;;;;;;;;0.00;0.00;;;;;8.65;65.71;100177.47;5054217;28;45617;-75
2022/04/06 02:36:21;;;;;;;;;0.00;0.00;;;;;8.67;65.63;100181.81;5056062;28;45860;-73
2022/04/06 02:38:47;;;;;;;;;0.00;0.00;;;;;8.67;65.61;100176.56;5053926;28;45425;-76
2022/04/06 02:41:13;;;;;;;;;0.00;0.00;;;;;8.69;65.34;100174.75;5054533;28;45422;-75
2022/04/06 02:43:38;;;;;;;;;1.00;0.00;;;;;8.69;65.69;100169.47;5054098;28;45461;-75
2022/04/06 02:46:04;;;;;;;;;1.00;0.00;;;;;8.71;65.94;100167.72;5035493;28;46240;-75
2022/04/06 02:48:29;;;;;;;;;0.00;0.00;;;;;8.76;65.39;100175.53;5054036;28;45432;-74
2022/04/06 02:50:55;;;;;;;;;0.25;0.00;;;;;8.81;64.99;100173.66;5053763;28;45423;-75
2022/04/06 02:53:21;;;;;;;;;0.00;0.00;;;;;8.81;64.56;100171.03;5060240;28;45475;-75
2022/04/06 02:55:46;;;;;;;;;0.00;0.00;;;;;8.86;65.30;100165.66;5036194;28;46374;-73
2022/04/06 02:58:11;;;;;;;;;0.00;0.00;;;;;8.86;64.94;100157.75;5039725;28;45349;-74
2022/04/06 03:00:37;;;;;;;;;0.00;0.00;;;;;8.89;64.53;100171.72;5020067;28;45410;-75
2022/04/06 03:03:03;;;;;;;;;0.25;0.00;;;;;8.90;64.76;100151.53;5036925;28;45387;-76
2022/04/06 03:05:28;;;;;;;;;0.00;0.00;;;;;8.93;65.23;100156.75;5048052;28;45408;-75
2022/04/06 03:07:54;;;;;;;;;0.00;0.00;;;;;8.91;65.00;100147.97;5055439;28;45412;-75
2022/04/06 03:10:19;;;;;;;;;0.00;0.00;;;;;8.98;64.32;100154.00;5057427;28;45367;-76
2022/04/06 03:12:45;;;;;;;;;0.00;0.00;;;;;8.98;64.54;100149.59;5056931;28;45360;-75
2022/04/06 03:15:11;;;;;;;;;0.00;0.00;;;;;9.00;64.56;100147.81;5056226;28;45820;-74
2022/04/06 03:17:37;;;;;;;;;0.00;0.00;;;;;8.98;64.66;100143.47;5055774;28;45418;-75
2022/04/06 03:20:05;;;;;;;;;0.00;0.00;;;;;9.04;64.91;100138.06;5056094;28;45530;-76
2022/04/06 03:22:30;;;;;;;;;0.00;0.00;;;;;9.02;64.34;100135.47;5055295;28;45455;-74
2022/04/06 03:24:56;;;;;;;;;1.50;0.00;;;;;9.03;64.42;100131.06;5069842;28;45458;-74
2022/04/06 03:27:21;;;;;;;;;0.00;0.00;;;;;9.01;64.92;100123.19;5074687;27;45421;-74
2022/04/06 03:29:46;;;;;;;;;0.00;0.00;;;;;9.01;64.42;100125.81;5063672;28;45378;-75
2022/04/06 03:32:12;;;;;;;;;0.00;0.00;;;;;9.02;64.84;100124.94;5056703;28;45554;-75
2022/04/06 03:34:38;;;;;;;;;0.00;0.00;;;;;9.03;64.40;100126.66;5055682;28;45984;-74
2022/04/06 03:37:03;;;;;;;;;0.50;0.50;;;;;9.00;64.51;100116.19;5055844;28;45432;-75
2022/04/06 03:39:29;;;;;;;;;1.00;0.00;;;;;8.99;65.16;100125.00;5056033;28;45545;-76
2022/04/06 03:41:54;;;;;;;;;0.00;0.00;;;;;8.95;64.72;100115.41;5057815;27;45588;-76
2022/04/06 03:44:19;;;;;;;;;0.00;0.00;;;;;8.98;65.10;100115.34;5076370;28;45673;-76
2022/04/06 03:46:45;;;;;;;;;0.00;0.00;;;;;8.98;64.60;100120.59;5058676;28;45422;-74
2022/04/06 03:49:10;;;;;;;;;0.00;0.00;;;;;8.96;64.61;100109.25;5073753;28;45295;-74
2022/04/06 03:51:36;;;;;;;;;0.25;0.00;;;;;8.98;64.73;100110.06;5056680;28;45638;-75
2022/04/06 03:54:01;;;;;;;;;0.00;0.00;;;;;9.00;64.74;100118.81;5038728;28;46278;-75
2022/04/06 03:56:27;;;;;;;;;0.00;0.00;;;;;8.98;65.33;100103.94;5056590;28;45382;-74
2022/04/06 03:58:52;;;;;;;;;0.00;0.00;;;;;9.01;64.50;100117.91;5057143;28;45289;-75
2022/04/06 04:01:18;;;;;;;;;0.00;0.00;;;;;9.01;64.46;100112.63;5040550;28;45550;-75
2022/04/06 04:03:43;;;;;;;;;0.00;0.00;;;;;8.99;64.52;100116.22;5055982;28;45669;-75
2022/04/06 04:06:09;;;;;;;;;1.00;0.00;;;;;8.98;65.11;100110.06;5055063;28;45389;-74
2022/04/06 04:08:34;;;;;;;;;0.00;0.00;;;;;9.00;64.68;100110.03;5036253;28;45653;-75
2022/04/06 04:11:00;;;;;;;;;1.00;0.00;;;;;8.97;64.56;100100.41;5056365;28;45439;-75
2022/04/06 04:13:25;;;;;;;;;0.00;0.00;;;;;8.98;64.46;100110.06;5056137;28;45479;-74
2022/04/06 04:15:50;;;;;;;;;0.00;0.00;;;;;8.93;65.31;100097.88;5055803;28;45387;-75
2022/04/06 04:18:16;;;;;;;;;0.00;0.00;;;;;8.96;65.04;100111.88;5065418;28;45378;-75
2022/04/06 04:20:45;;;;;;;;;1.00;0.00;;;;;8.92;65.42;100110.19;5055316;28;45375;-75
2022/04/06 04:23:11;;;;;;;;;0.00;0.00;;;;;8.88;65.52;100105.88;5055651;28;45477;-75
2022/04/06 04:25:37;;;;;;;;;0.00;0.00;;;;;8.87;66.64;100107.66;5076048;28;45373;-76
2022/04/06 04:28:02;;;;;;;;;0.00;0.00;;;;;8.88;65.44;100100.59;5068359;28;45442;-74
2022/04/06 04:30:28;;;;;;;;;1.00;0.00;;;;;8.87;65.81;100104.16;5059189;28;45655;-75
2022/04/06 04:32:53;;;;;;;;;0.75;0.00;;;;;8.87;66.85;100112.06;5055787;28;45433;-75
2022/04/06 04:35:19;;;;;;;;;1.00;0.00;;;;;8.85;65.93;100095.41;5055461;28;45566;-74
2022/04/06 04:37:44;;;;;;;;;0.00;0.00;;;;;8.82;66.50;100084.91;5059962;28;45539;-74
2022/04/06 04:40:10;;;;;;;;;0.00;0.00;;;;;8.84;65.91;100077.88;5075908;27;45441;-76
2022/04/06 04:42:35;;;;;;;;;0.00;0.00;;;;;8.87;66.30;100088.34;5063865;27;45482;-75
2022/04/06 04:45:02;;;;;;;;;1.00;0.00;;;;;8.85;66.51;100076.94;5055584;28;45524;-75
2022/04/06 04:47:27;;;;;;;;;0.00;0.00;;;;;8.83;66.47;100082.25;5055301;28;45482;-74
2022/04/06 04:49:53;;;;;;;;;0.75;0.00;;;;;8.85;66.26;100076.94;5055428;28;45507;-74
2022/04/06 04:52:18;;;;;;;;;1.00;0.00;;;;;8.86;65.57;100076.91;5055494;28;45443;-74
2022/04/06 04:54:44;;;;;;;;;0.00;0.00;;;;;8.87;65.69;100085.72;5054464;28;45393;-76
2022/04/06 04:57:09;;;;;;;;;1.00;0.00;;;;;8.85;65.57;100069.03;5055035;28;45417;-75
2022/04/06 04:59:34;;;;;;;;;0.50;0.00;;;;;8.91;65.27;100062.78;5038654;28;45550;-74
2022/04/06 05:02:00;;;;;;;;;0.00;0.00;;;;;8.91;65.78;100068.06;5057136;28;54865;-75
2022/04/06 05:04:25;;;;;;;;;0.00;0.00;;;;;8.93;65.38;100060.97;5055343;28;45353;-75
2022/04/06 05:06:50;;;;;;;;;0.00;0.00;;;;;8.93;65.68;100066.25;5055069;28;45392;-75
2022/04/06 05:09:17;;;;;;;;;1.00;1.00;;;;;8.92;65.23;100062.75;5055060;28;45435;-76
2022/04/06 05:11:43;;;;;;;;;0.00;0.00;;;;;8.87;65.27;100056.72;5055241;28;47436;-76
2022/04/06 05:14:09;;;;;;;;;0.75;0.00;;;;;8.95;65.46;100069.72;5054694;28;45568;-76
2022/04/06 05:16:35;;;;;;;;;0.00;0.00;;;;;8.99;65.35;100071.41;5055562;28;45454;-75
2022/04/06 05:19:01;;;;;;;;;0.25;0.25;;;;;8.96;65.41;100066.16;5039668;28;45480;-76
2022/04/06 05:21:27;;;;;;;;;0.00;0.00;;;;;8.97;65.35;100063.50;5075336;28;45434;-76
2022/04/06 05:23:52;;;;;;;;;0.00;0.00;;;;;8.99;65.91;100061.72;5074784;28;45432;-76
2022/04/06 05:26:17;;;;;;;;;1.50;0.00;;;;;8.98;65.68;100054.69;5067186;27;45379;-76
2022/04/06 05:28:43;;;;;;;;;0.00;0.00;;;;;9.01;65.58;100057.28;5055525;28;45487;-75
2022/04/06 05:31:08;;;;;;;;;0.75;0.75;;;;;9.01;65.66;100062.53;5079416;27;45316;-74
2022/04/06 05:33:34;;;;;;;;;0.75;0.75;;;;;9.00;65.89;100060.84;5057748;28;45233;-73
2022/04/06 05:35:59;;;;;;;;;0.00;0.00;;;;;8.98;65.79;100067.88;5064287;28;45482;-76
2022/04/06 05:38:25;;;;;;;;;1.75;0.75;;;;;8.99;65.87;100069.63;5054707;28;45415;-75
2022/04/06 05:40:51;;;;;;;;;5.25;1.00;;;;;8.98;65.69;100072.31;5054119;28;46170;-75
2022/04/06 05:43:17;;;;;;;;;3.00;0.00;;;;;9.00;65.96;100079.28;5054001;28;45614;-77
2022/04/06 05:45:42;;;;;;;;;1.50;1.00;;;;;9.01;66.32;100081.00;5053971;28;45514;-75
2022/04/06 05:48:08;;;;;;;;;0.00;0.00;;;;;9.01;65.98;100074.88;5055000;28;45455;-75
2022/04/06 05:50:34;;;;;;;;;1.00;0.00;;;;;9.01;66.21;100086.28;5045754;28;45687;-75
2022/04/06 05:52:59;;;;;;;;;0.25;0.25;;;;;9.01;66.29;100075.72;5058939;28;45441;-76
2022/04/06 05:55:25;;;;;;;;;2.75;0.00;;;;;8.99;66.38;100071.41;5036988;28;45443;-76
2022/04/06 05:57:50;;;;;;;;;14.00;1.00;;;;;9.00;66.57;100063.47;5055233;28;45407;-75
2022/04/06 06:00:16;;;;;;;;;3.50;2.25;;;;;8.99;66.52;100064.34;5055798;28;46712;-75
2022/04/06 06:02:43;;;;;;;;;1.50;1.00;;;;;8.99;67.12;100072.28;5056326;28;45395;-75
2022/04/06 06:05:08;;;;;;;;;0.00;0.00;;;;;8.99;66.75;100067.00;5036502;28;45533;-76
2022/04/06 06:07:34;;;;;;;;;3.00;1.00;;;;;9.02;66.64;100066.06;5035821;28;45351;-76
2022/04/06 06:10:02;;;;;;;;;0.50;0.50;;;;;9.01;67.08;100059.06;5073773;28;45429;-81
2022/04/06 06:12:27;;;;;;;;;1.00;1.00;;;;;9.03;67.42;100070.41;5078802;28;45309;-81
2022/04/06 06:14:52;;;;;;;;;0.25;0.25;;;;;9.03;66.79;100060.75;5076739;27;45319;-80
2022/04/06 06:17:18;;;;;;;;;0.00;0.00;;;;;9.03;66.78;100068.66;5075305;28;45371;-80
2022/04/06 06:19:43;;;;;;;;;1.00;1.00;;;;;9.03;66.77;100057.25;5075577;28;45962;-81
2022/04/06 06:22:08;;;;;;;;;1.00;1.00;;;;;9.04;66.61;100059.84;5055722;28;45438;-81
2022/04/06 06:24:34;;;;;;;;;1.50;1.50;;;;;9.05;66.95;100048.41;5071509;28;45559;-80
2022/04/06 06:26:59;;;;;;;;;1.75;0.25;;;;;9.12;67.25;100053.53;5064992;28;45405;-80
2022/04/06 06:29:24;;;;;;;;;0.00;0.00;;;;;9.14;66.72;100055.25;5058764;28;45906;-81
2022/04/06 06:31:54;;;;;;;;;1.00;1.00;;;;;9.15;66.60;100045.56;5029633;28;45395;-80
2022/04/06 06:34:19;;;;;;;;;3.25;0.75;;;;;9.20;66.22;100043.69;5064807;28;45473;-79
2022/04/06 06:36:44;;;;;;;;;2.25;1.00;;;;;9.23;66.10;100051.50;5059240;28;45424;-80
2022/04/06 06:39:10;;;;;;;;;1.00;0.75;;;;;9.17;66.40;100038.47;5062754;27;46373;-79
2022/04/06 06:41:35;;;;;;;;;0.50;0.00;;;;;9.29;66.59;100051.38;5049691;28;45476;-80
2022/04/06 06:44:02;;;;;;;;;1.00;0.00;;;;;9.29;66.06;100054.00;5069568;28;45569;-79
2022/04/06 06:46:29;;;;;;;;;0.00;0.00;;;;;9.33;65.89;100055.69;5081465;28;45485;-79
2022/04/06 06:49:02;;;;;;;;;0.50;0.50;;;;;9.34;65.60;100057.44;5067532;27;45491;-79
2022/04/06 06:51:29;;;;;;;;;0.00;0.00;;;;;9.34;66.12;100054.78;5064066;28;45432;-80
2022/04/06 06:53:54;;;;;;;;;0.00;0.00;;;;;9.34;65.82;100046.03;5060893;28;45620;-82
2022/04/06 06:56:19;;;;;;;;;0.00;0.00;;;;;9.39;65.31;100055.53;5061445;28;45422;-81
2022/04/06 06:58:44;;;;;;;;;0.25;0.00;;;;;9.40;65.54;100056.44;5042646;28;46911;-79
2022/04/06 07:01:10;;;;;;;;;0.00;0.00;;;;;9.46;65.72;100055.41;5044775;28;45923;-82
2022/04/06 07:03:35;;;;;;;;;3.75;0.00;;;;;9.50;65.87;100050.00;5050373;28;45457;-78
2022/04/06 07:06:00;;;;;;;;;0.25;0.25;;;;;9.52;65.10;100049.97;5063478;28;45379;-79
2022/04/06 07:08:26;;;;;;;;;0.75;0.75;;;;;9.56;65.46;100035.81;5061057;28;45586;-79
2022/04/06 07:10:51;;;;;;;;;0.25;0.25;;;;;9.58;64.79;100040.16;5060362;28;45600;-78
2022/04/06 07:13:16;;;;;;;;;0.25;0.25;;;;;9.58;64.75;100036.63;5069312;28;45558;-80
2022/04/06 07:15:43;;;;;;;;;0.00;0.00;;;;;9.58;64.97;100034.00;5056694;28;45635;-79
2022/04/06 07:18:09;;;;;;;;;0.00;0.00;;;;;9.62;64.72;100026.88;5069438;27;46226;-79
2022/04/06 07:20:38;;;;;;;;;1.50;1.50;;;;;9.70;64.64;100031.06;5038479;28;45407;-79
2022/04/06 07:23:04;;;;;;;;;1.00;0.00;;;;;9.74;64.12;100035.34;5061924;28;45505;-80
2022/04/06 07:25:30;;;;;;;;;0.00;0.00;;;;;9.78;64.31;100031.72;5060087;28;45477;-79
2022/04/06 07:27:55;;;;;;;;;0.00;0.00;;;;;9.85;63.51;100042.13;5060740;28;45619;-79
2022/04/06 07:30:21;;;;;;;;;0.75;0.00;;;;;9.86;63.64;100034.19;5061392;28;45422;-80
2022/04/06 07:32:46;;;;;;;;;0.00;0.00;;;;;9.93;63.96;100035.75;5046805;28;45506;-80
2022/04/06 07:35:12;;;;;;;;;0.25;0.25;;;;;9.95;63.58;100025.16;5065596;28;44837;-79
2022/04/06 07:37:43;;;;;;;;;0.50;0.50;;;;;9.81;63.27;99991.22;5526232;22;46617;-76
2022/04/06 07:40:11;;;;;;;;;0.00;0.00;;;;;10.11;63.17;100029.13;5039798;28;45445;-77
2022/04/06 07:42:38;;;;;;;;;0.00;0.00;;;;;10.14;62.89;100030.81;5030911;28;45396;-76
2022/04/06 07:45:06;;;;;;;;;0.00;0.00;;;;;10.19;62.79;100036.84;5034832;28;45578;-76
2022/04/06 07:47:33;;;;;;;;;0.00;0.00;;;;;10.21;62.56;100026.25;5035419;28;45395;-81
2022/04/06 07:49:58;;;;;;;;;0.00;0.00;;;;;10.22;63.03;100020.03;5036860;28;45498;-81
2022/04/06 07:52:25;;;;;;;;;0.00;0.00;;;;;10.22;62.51;100020.03;5036665;28;45380;-81
2022/04/06 07:54:50;;;;;;;;;0.25;0.00;;;;;10.25;62.71;100022.63;5037843;28;45545;-81
2022/04/06 07:57:16;;;;;;;;;0.00;0.00;;;;;10.29;62.46;100026.88;5054077;28;45575;-81
2022/04/06 07:59:41;;;;;;;;;0.00;0.00;;;;;10.31;62.25;100014.53;5060751;28;45415;-82
2022/04/06 08:02:06;;;;;;;;;0.25;0.25;;;;;10.32;62.24;100010.94;5060816;28;45438;-76
2022/04/06 08:04:32;;;;;;;;;1.00;0.00;;;;;10.33;62.36;100007.44;5058158;28;45402;-75
2022/04/06 08:06:57;;;;;;;;;0.25;0.25;;;;;10.39;61.79;100004.63;5043931;28;46262;-75
2022/04/06 08:09:23;;;;;;;;;2.00;0.00;;;;;10.43;62.17;100008.94;5035951;28;45606;-76
2022/04/06 08:11:48;;;;;;;;;0.00;0.00;;;;;10.49;62.12;100003.47;5021257;28;45447;-75
2022/04/06 08:14:13;;;;;;;;;1.00;0.00;;;;;10.52;62.09;100002.50;5017743;28;45685;-81
2022/04/06 08:16:39;;;;;;;;;1.00;1.00;;;;;10.57;61.79;99994.47;5018389;28;45551;-82
2022/04/06 08:19:04;;;;;;;;;0.00;0.00;;;;;10.63;61.43;99989.00;5018409;28;45384;-81
2022/04/06 08:21:29;;;;;;;;;2.50;1.50;;;;;10.65;61.25;99984.50;5016535;28;45438;-81
2022/04/06 08:23:56;;;;;;;;;0.25;0.25;;;;;10.68;61.46;99976.50;5016996;28;45428;-80
2022/04/06 08:26:21;;;;;;;;;1.00;0.00;;;;;10.72;61.30;99990.47;5019100;28;47556;-80
2022/04/06 08:28:47;;;;;;;;;1.00;0.00;;;;;10.78;61.14;100001.75;5033587;28;45431;-81
2022/04/06 08:31:13;;;;;;;;;1.00;0.00;;;;;10.88;61.16;99998.81;5028272;28;45594;-80
2022/04/06 08:33:38;;;;;;;;;1.50;0.00;;;;;10.92;60.66;99989.91;5036896;28;45502;-79
2022/04/06 08:36:06;;;;;;;;;0.00;0.00;;;;;10.99;60.61;99999.34;5028866;28;45328;-81
2022/04/06 08:38:32;;;;;;;;;0.00;0.00;;;;;11.04;60.75;99994.81;5037648;28;45473;-80
2022/04/06 08:40:57;;;;;;;;;0.00;0.00;;;;;11.02;60.13;99983.38;5028203;28;45540;-80
2022/04/06 08:43:23;;;;;;;;;0.00;0.00;;;;;11.01;59.92;99974.59;5017672;28;45411;-81
2022/04/06 08:45:50;;;;;;;;;0.75;0.75;;;;;11.11;60.35;99985.75;5020885;28;46507;-80
2022/04/06 08:48:19;;;;;;;;;0.00;0.00;;;;;11.17;60.17;99985.56;5025483;28;45511;-80
2022/04/06 08:50:45;;;;;;;;;1.00;1.00;;;;;11.19;59.76;99981.09;5015835;28;45418;-82
2022/04/06 08:53:12;;;;;;;;;0.25;0.25;;;;;11.23;59.90;99978.34;5018645;28;45583;-81
2022/04/06 08:55:38;;;;;;;;;0.75;0.75;;;;;11.23;59.61;99981.00;5004216;28;45600;-76
2022/04/06 08:58:04;;;;;;;;;0.00;0.00;;;;;11.26;59.75;99978.25;5015575;28;45825;-75
2022/04/06 09:00:30;;;;;;;;;2.00;0.00;;;;;11.31;59.81;99984.25;4997731;28;45456;-74
2022/04/06 09:02:55;;;;;;;;;1.50;0.00;;;;;11.35;59.72;99970.00;5015188;28;45468;-74
2022/04/06 09:05:23;;;;;;;;;1.00;1.00;;;;;11.43;59.58;99972.41;5016399;28;46161;-76
2022/04/06 09:07:51;;;;;;;;;0.00;0.00;;;;;11.50;59.53;99972.13;5015241;28;45348;-74
2022/04/06 09:10:28;;;;;;;;;0.25;0.00;;;;;11.60;59.28;99972.72;5015478;28;45450;-75
2022/04/06 09:13:10;;;;;;;;;1.00;1.00;;;;;11.68;59.29;99972.44;5013804;28;45525;-76
2022/04/06 09:15:35;;;;;;;;;4.75;1.75;;;;;11.72;59.19;99971.41;5015052;28;45380;-75
2022/04/06 09:18:01;;;;;;;;;3.75;1.00;;;;;11.78;59.02;99973.88;5016106;28;45760;-75
2022/04/06 09:20:27;;;;;;;;;4.75;4.00;;;;;11.75;58.67;99966.00;4997497;28;45456;-75
2022/04/06 09:22:52;;;;;;;;;1.50;1.50;;;;;11.81;58.74;99971.13;5031259;28;45602;-75
2022/04/06 09:25:21;;;;;;;;;1.00;1.00;;;;;11.94;58.27;99960.13;5014890;28;45491;-75
2022/04/06 09:27:47;;;;;;;;;3.00;1.50;;;;;12.02;58.00;99966.00;5021954;28;45394;-75
2022/04/06 09:30:13;;;;;;;;;0.75;0.75;;;;;12.06;58.23;99964.97;5022889;28;45383;-81
2022/04/06 09:32:42;;;;;;;;;0.00;0.00;;;;;12.12;57.84;99964.75;5024962;28;45344;-80
2022/04/06 09:35:25;;;;;;;;;2.00;2.00;;;;;12.11;58.04;99963.03;5021722;28;45529;-81
2022/04/06 09:38:11;;;;;;;;;1.00;0.00;;;;;12.11;57.79;99962.16;5017412;28;45523;-79
2022/04/06 09:40:40;;;;;;;;;0.00;0.00;;;;;12.08;57.32;99964.00;5013781;28;45391;-82
2022/04/06 09:43:07;;;;;;;;;0.00;0.00;;;;;12.04;57.23;99958.84;5023438;28;45745;-80
2022/04/06 09:48:16;;;;;;;;;3.00;1.00;;;;;12.05;57.61;99968.53;5026559;28;45411;-80
2022/04/06 09:50:54;;;;;;;;;0.75;0.75;;;;;12.00;57.40;99959.91;5028235;28;45422;-81
2022/04/06 09:53:24;;;;;;;;;0.75;0.75;;;;;11.99;57.19;99963.47;5031886;28;45381;-80
2022/04/06 09:55:53;;;;;;;;;0.00;0.00;;;;;11.90;57.79;99962.84;5017322;28;45472;-75
2022/04/06 09:58:20;;;;;;;;;1.00;1.00;;;;;11.95;57.63;99965.38;5029122;28;45447;-75
2022/04/06 10:00:45;;;;;;;;;0.00;0.00;;;;;11.85;57.68;99954.19;5017637;28;45372;-75
2022/04/06 10:03:15;;;;;;;;;0.00;0.00;;;;;11.91;57.92;99950.47;5034451;28;45420;-75
2022/04/06 10:05:44;;;;;;;;;1.00;0.25;;;;;12.05;57.79;99964.09;5023303;28;45567;-76
2022/04/06 10:08:11;;;;;;;;;1.75;0.00;;;;;12.09;57.67;99965.72;5028875;28;45486;-76
2022/04/06 10:10:40;;;;;;;;;1.00;1.00;;;;;12.07;57.41;99967.56;5016286;28;45357;-74
2022/04/06 10:13:07;;;;;;;;;0.00;0.00;;;;;12.09;57.91;99962.22;5019452;28;45601;-77
2022/04/06 10:15:35;;;;;;;;;0.75;0.25;;;;;12.08;57.80;99960.47;5025415;28;46015;-75
2022/04/06 10:18:09;;;;;;;;;0.00;0.00;;;;;12.07;57.00;99941.09;5020581;28;45538;-78
2022/04/06 10:20:59;;;;;;;;;3.00;3.00;;;;;12.30;56.85;99933.19;5031954;28;45411;-75
2022/04/06 10:23:50;;;;;;;;;1.75;0.75;;;;;12.53;56.58;99927.91;5025979;28;45529;-80
2022/04/06 10:26:27;;;;;;;;;2.00;1.00;;;;;12.63;56.26;99928.41;5024401;28;45442;-82
2022/04/06 10:28:52;;;;;;;;;1.50;1.00;;;;;12.75;56.03;99932.38;5026083;28;45673;-82
2022/04/06 10:31:22;;;;;;;;;4.00;1.25;;;;;12.90;55.57;99931.75;5022990;28;45540;-82
2022/04/06 10:33:49;;;;;;;;;1.00;0.50;;;;;13.03;54.30;99931.31;5022153;28;45379;-82
2022/04/06 10:36:16;;;;;;;;;0.50;0.50;;;;;13.18;54.62;99921.81;5036890;28;45492;-80
2022/04/06 10:39:08;;;;;;;;;4.00;2.00;;;;;13.28;53.70;99916.06;5028108;28;45571;-82
2022/04/06 10:41:37;;;;;;;;;1.00;0.00;;;;;13.26;53.70;99917.94;5031073;28;45500;-82
2022/04/06 10:44:03;;;;;;;;;1.00;1.00;;;;;13.19;53.43;99913.81;5024663;28;45506;-82
2022/04/06 10:46:34;;;;;;;;;2.00;0.00;;;;;13.10;53.90;99912.41;5022992;28;45522;-82
2022/04/06 10:49:05;;;;;;;;;1.00;0.00;;;;;13.00;54.42;99907.53;5027275;28;45865;-81
2022/04/06 10:51:37;;;;;;;;;1.75;0.75;;;;;13.01;54.50;99918.06;5013589;28;45547;-80
2022/04/06 10:54:11;;;;;;;;;1.00;1.00;;;;;13.16;54.45;99905.97;5026911;28;45541;-83
2022/04/06 10:56:53;;;;;;;;;0.00;0.00;;;;;13.20;54.36;99886.34;5026270;28;45480;-76
2022/04/06 10:59:19;;;;;;;;;1.00;1.00;;;;;13.37;54.25;99895.44;5032773;28;45521;-86
2022/04/06 11:01:48;;;;;;;;;0.00;0.00;;;;;13.45;54.30;99872.94;5029201;28;45356;-80
2022/04/06 11:04:23;;;;;;;;;1.00;1.00;;;;;13.59;54.60;99877.66;5015615;28;45483;-81
2022/04/06 11:06:56;;;;;;;;;1.25;1.25;;;;;13.59;54.04;99882.09;5014606;28;45461;-76
2022/04/06 11:12:22;;;;;;;;;1.00;1.00;;;;;13.63;54.27;99867.75;5025783;28;45463;-76
2022/04/06 11:14:50;;;;;;;;;0.00;0.00;;;;;13.50;54.23;99862.13;5011584;28;45489;-82
2022/04/06 11:17:44;;;;;;;;;1.00;1.00;;;;;13.55;54.58;99865.44;5011575;28;47025;-81
2022/04/06 11:20:21;;;;;;;;;0.75;0.75;;;;;13.58;54.13;99854.69;5020556;28;45506;-82
2022/04/06 11:22:46;;;;;;;;;1.00;1.00;;;;;13.54;54.52;99853.09;5015635;28;45372;-82
2022/04/06 11:25:14;;;;;;;;;4.00;1.00;;;;;13.50;54.33;99851.50;5027436;28;45660;-75
2022/04/06 11:27:41;;;;;;;;;1.00;1.00;;;;;13.43;54.47;99844.75;5000543;28;46954;-76
2022/04/06 11:30:15;;;;;;;;;7.75;3.00;;;;;13.46;54.98;99842.81;5023190;28;45509;-81
2022/04/06 11:32:55;;;;;;;;;4.00;1.75;;;;;13.49;55.01;99839.16;5016390;28;45628;-81
2022/04/06 11:35:26;;;;;;;;;1.00;1.00;;;;;13.53;55.18;99835.47;5028541;28;45424;-76
2022/04/06 11:37:51;;;;;;;;;1.00;1.00;;;;;13.49;55.17;99839.16;5021743;28;46799;-75
2022/04/06 11:40:22;;;;;;;;;0.50;0.00;;;;;13.67;55.34;99822.41;5021167;28;45468;-75